sensor_id;sensor_type;location;lat;lon;timestamp;P1;durP1;ratioP1;P2;durP2;ratioP2
19525;SDS011;9907;42.676;26.348;2023-04-15T00:01:18;4.17;;;2.50;;
19525;SDS011;9907;42.676;26.348;2023-04-15T00:03:44;5.37;;;2.30;;
19525;SDS011;9907;42.676;26.348;2023-04-15T00:06:10;4.40;;;2.10;;
19525;SDS011;9907;42.676;26.348;2023-04-15T00:08:36;3.73;;;2.07;;
19525;SDS011;9907;42.676;26.348;2023-04-15T00:11:01;3.80;;;1.87;;
19525;SDS011;9907;42.676;26.348;2023-04-15T00:13:29;5.63;;;2.20;;
19525;SDS011;9907;42.676;26.348;2023-04-15T00:16:00;2.90;;;1.83;;
19525;SDS011;9907;42.676;26.348;2023-04-15T00:18:26;3.93;;;1.90;;
19525;SDS011;9907;42.676;26.348;2023-04-15T00:20:53;2.00;;;1.80;;
19525;SDS011;9907;42.676;26.348;2023-04-15T00:23:19;4.77;;;2.10;;
19525;SDS011;9907;42.676;26.348;2023-04-15T00:25:44;3.37;;;2.10;;
19525;SDS011;9907;42.676;26.348;2023-04-15T00:28:09;2.93;;;2.43;;
19525;SDS011;9907;42.676;26.348;2023-04-15T00:30:35;6.80;;;2.80;;
19525;SDS011;9907;42.676;26.348;2023-04-15T00:33:01;5.97;;;2.50;;
19525;SDS011;9907;42.676;26.348;2023-04-15T00:35:27;6.50;;;2.03;;
19525;SDS011;9907;42.676;26.348;2023-04-15T00:37:53;3.37;;;2.27;;
19525;SDS011;9907;42.676;26.348;2023-04-15T00:40:19;4.17;;;2.50;;
19525;SDS011;9907;42.676;26.348;2023-04-15T00:42:46;4.20;;;2.80;;
19525;SDS011;9907;42.676;26.348;2023-04-15T00:45:12;3.30;;;2.20;;
19525;SDS011;9907;42.676;26.348;2023-04-15T00:47:38;2.80;;;2.20;;
19525;SDS011;9907;42.676;26.348;2023-04-15T00:50:05;3.60;;;2.10;;
19525;SDS011;9907;42.676;26.348;2023-04-15T00:52:32;4.50;;;1.77;;
19525;SDS011;9907;42.676;26.348;2023-04-15T00:54:57;3.47;;;1.83;;
19525;SDS011;9907;42.676;26.348;2023-04-15T00:57:23;3.93;;;2.07;;
19525;SDS011;9907;42.676;26.348;2023-04-15T00:59:50;5.67;;;2.23;;
19525;SDS011;9907;42.676;26.348;2023-04-15T01:02:18;5.03;;;2.20;;
19525;SDS011;9907;42.676;26.348;2023-04-15T01:04:43;5.83;;;2.77;;
19525;SDS011;9907;42.676;26.348;2023-04-15T01:07:09;4.93;;;2.30;;
19525;SDS011;9907;42.676;26.348;2023-04-15T01:09:34;6.37;;;2.30;;
19525;SDS011;9907;42.676;26.348;2023-04-15T01:12:00;4.70;;;2.40;;
19525;SDS011;9907;42.676;26.348;2023-04-15T01:14:26;4.20;;;2.30;;
19525;SDS011;9907;42.676;26.348;2023-04-15T01:16:53;4.90;;;2.70;;
19525;SDS011;9907;42.676;26.348;2023-04-15T01:19:18;3.20;;;2.30;;
19525;SDS011;9907;42.676;26.348;2023-04-15T01:21:44;2.80;;;2.10;;
19525;SDS011;9907;42.676;26.348;2023-04-15T01:24:10;3.60;;;2.50;;
19525;SDS011;9907;42.676;26.348;2023-04-15T01:26:37;6.10;;;2.90;;
19525;SDS011;9907;42.676;26.348;2023-04-15T01:29:05;5.47;;;2.87;;
19525;SDS011;9907;42.676;26.348;2023-04-15T01:31:31;6.03;;;3.50;;
19525;SDS011;9907;42.676;26.348;2023-04-15T01:33:57;5.37;;;3.33;;
19525;SDS011;9907;42.676;26.348;2023-04-15T01:36:22;5.13;;;2.97;;
19525;SDS011;9907;42.676;26.348;2023-04-15T01:38:48;5.70;;;3.80;;
19525;SDS011;9907;42.676;26.348;2023-04-15T01:41:15;6.23;;;3.20;;
19525;SDS011;9907;42.676;26.348;2023-04-15T01:43:40;6.17;;;2.93;;
19525;SDS011;9907;42.676;26.348;2023-04-15T01:46:06;5.60;;;3.20;;
19525;SDS011;9907;42.676;26.348;2023-04-15T01:48:32;5.80;;;2.80;;
19525;SDS011;9907;42.676;26.348;2023-04-15T01:50:58;7.77;;;3.10;;
19525;SDS011;9907;42.676;26.348;2023-04-15T01:53:24;6.13;;;3.00;;
19525;SDS011;9907;42.676;26.348;2023-04-15T01:55:50;8.30;;;3.17;;
19525;SDS011;9907;42.676;26.348;2023-04-15T01:58:16;6.70;;;3.20;;
19525;SDS011;9907;42.676;26.348;2023-04-15T02:00:42;6.03;;;3.17;;
19525;SDS011;9907;42.676;26.348;2023-04-15T02:03:07;7.57;;;3.40;;
19525;SDS011;9907;42.676;26.348;2023-04-15T02:05:34;4.70;;;2.90;;
19525;SDS011;9907;42.676;26.348;2023-04-15T02:07:59;6.60;;;3.30;;
19525;SDS011;9907;42.676;26.348;2023-04-15T02:10:25;6.07;;;3.30;;
19525;SDS011;9907;42.676;26.348;2023-04-15T02:12:51;6.13;;;3.20;;
19525;SDS011;9907;42.676;26.348;2023-04-15T02:15:18;5.33;;;3.33;;
19525;SDS011;9907;42.676;26.348;2023-04-15T02:17:44;8.63;;;4.13;;
19525;SDS011;9907;42.676;26.348;2023-04-15T02:20:14;4.40;;;2.57;;
19525;SDS011;9907;42.676;26.348;2023-04-15T02:22:41;3.97;;;2.30;;
19525;SDS011;9907;42.676;26.348;2023-04-15T02:25:06;5.57;;;2.33;;
19525;SDS011;9907;42.676;26.348;2023-04-15T02:27:33;7.00;;;2.97;;
19525;SDS011;9907;42.676;26.348;2023-04-15T02:30:00;7.23;;;3.10;;
19525;SDS011;9907;42.676;26.348;2023-04-15T02:32:26;6.20;;;3.13;;
19525;SDS011;9907;42.676;26.348;2023-04-15T02:34:51;5.33;;;3.37;;
19525;SDS011;9907;42.676;26.348;2023-04-15T02:37:17;6.97;;;3.00;;
19525;SDS011;9907;42.676;26.348;2023-04-15T02:39:44;5.30;;;2.73;;
19525;SDS011;9907;42.676;26.348;2023-04-15T02:42:10;5.57;;;3.20;;
19525;SDS011;9907;42.676;26.348;2023-04-15T02:44:35;4.90;;;2.90;;
19525;SDS011;9907;42.676;26.348;2023-04-15T02:47:01;5.03;;;2.80;;
19525;SDS011;9907;42.676;26.348;2023-04-15T02:49:28;6.27;;;3.13;;
19525;SDS011;9907;42.676;26.348;2023-04-15T02:51:55;4.47;;;2.90;;
19525;SDS011;9907;42.676;26.348;2023-04-15T02:54:22;5.07;;;2.70;;
19525;SDS011;9907;42.676;26.348;2023-04-15T02:56:48;4.00;;;2.70;;
19525;SDS011;9907;42.676;26.348;2023-04-15T02:59:14;4.50;;;2.60;;
19525;SDS011;9907;42.676;26.348;2023-04-15T03:01:39;6.17;;;3.10;;
19525;SDS011;9907;42.676;26.348;2023-04-15T03:04:05;5.73;;;3.00;;
19525;SDS011;9907;42.676;26.348;2023-04-15T03:06:32;5.37;;;3.17;;
19525;SDS011;9907;42.676;26.348;2023-04-15T03:08:58;5.93;;;2.77;;
19525;SDS011;9907;42.676;26.348;2023-04-15T03:11:25;4.37;;;2.73;;
19525;SDS011;9907;42.676;26.348;2023-04-15T03:13:51;6.40;;;2.97;;
19525;SDS011;9907;42.676;26.348;2023-04-15T03:16:17;5.43;;;2.93;;
19525;SDS011;9907;42.676;26.348;2023-04-15T03:18:42;5.00;;;2.90;;
19525;SDS011;9907;42.676;26.348;2023-04-15T03:21:07;3.70;;;2.97;;
19525;SDS011;9907;42.676;26.348;2023-04-15T03:23:33;6.47;;;4.43;;
19525;SDS011;9907;42.676;26.348;2023-04-15T03:26:02;4.43;;;2.90;;
19525;SDS011;9907;42.676;26.348;2023-04-15T03:28:28;4.67;;;3.30;;
19525;SDS011;9907;42.676;26.348;2023-04-15T03:30:54;6.87;;;2.90;;
19525;SDS011;9907;42.676;26.348;2023-04-15T03:33:20;8.37;;;3.17;;
19525;SDS011;9907;42.676;26.348;2023-04-15T03:35:45;5.67;;;2.97;;
19525;SDS011;9907;42.676;26.348;2023-04-15T03:38:11;6.13;;;3.50;;
19525;SDS011;9907;42.676;26.348;2023-04-15T03:40:37;5.00;;;3.20;;
19525;SDS011;9907;42.676;26.348;2023-04-15T03:43:05;7.80;;;4.23;;
19525;SDS011;9907;42.676;26.348;2023-04-15T03:45:30;6.80;;;3.60;;
19525;SDS011;9907;42.676;26.348;2023-04-15T03:47:56;5.07;;;2.90;;
19525;SDS011;9907;42.676;26.348;2023-04-15T03:50:21;6.63;;;3.07;;
19525;SDS011;9907;42.676;26.348;2023-04-15T03:52:47;5.53;;;3.10;;
19525;SDS011;9907;42.676;26.348;2023-04-15T03:55:12;3.50;;;2.47;;
19525;SDS011;9907;42.676;26.348;2023-04-15T03:57:38;4.37;;;2.73;;
19525;SDS011;9907;42.676;26.348;2023-04-15T04:00:04;4.23;;;2.77;;
19525;SDS011;9907;42.676;26.348;2023-04-15T04:02:30;4.53;;;2.90;;
19525;SDS011;9907;42.676;26.348;2023-04-15T04:04:56;4.97;;;3.23;;
19525;SDS011;9907;42.676;26.348;2023-04-15T04:07:22;5.00;;;3.20;;
19525;SDS011;9907;42.676;26.348;2023-04-15T04:09:48;6.03;;;3.40;;
19525;SDS011;9907;42.676;26.348;2023-04-15T04:12:14;5.97;;;3.30;;
19525;SDS011;9907;42.676;26.348;2023-04-15T04:14:39;4.83;;;3.37;;
19525;SDS011;9907;42.676;26.348;2023-04-15T04:17:05;7.77;;;3.70;;
19525;SDS011;9907;42.676;26.348;2023-04-15T04:19:30;5.03;;;3.67;;
19525;SDS011;9907;42.676;26.348;2023-04-15T04:21:56;5.67;;;3.13;;
19525;SDS011;9907;42.676;26.348;2023-04-15T04:24:21;6.03;;;3.60;;
19525;SDS011;9907;42.676;26.348;2023-04-15T04:26:47;6.63;;;3.90;;
19525;SDS011;9907;42.676;26.348;2023-04-15T04:29:13;5.40;;;3.80;;
19525;SDS011;9907;42.676;26.348;2023-04-15T04:31:39;8.17;;;4.13;;
19525;SDS011;9907;42.676;26.348;2023-04-15T04:34:04;7.97;;;4.50;;
19525;SDS011;9907;42.676;26.348;2023-04-15T04:36:30;6.90;;;4.07;;
19525;SDS011;9907;42.676;26.348;2023-04-15T04:38:55;8.37;;;4.30;;
19525;SDS011;9907;42.676;26.348;2023-04-15T04:41:21;4.57;;;3.90;;
19525;SDS011;9907;42.676;26.348;2023-04-15T04:43:46;7.63;;;4.07;;
19525;SDS011;9907;42.676;26.348;2023-04-15T04:46:12;5.43;;;3.67;;
19525;SDS011;9907;42.676;26.348;2023-04-15T04:48:37;5.67;;;3.60;;
19525;SDS011;9907;42.676;26.348;2023-04-15T04:51:03;4.07;;;3.63;;
19525;SDS011;9907;42.676;26.348;2023-04-15T04:53:29;5.53;;;3.80;;
19525;SDS011;9907;42.676;26.348;2023-04-15T04:55:55;6.23;;;3.60;;
19525;SDS011;9907;42.676;26.348;2023-04-15T04:58:20;5.67;;;3.80;;
19525;SDS011;9907;42.676;26.348;2023-04-15T05:00:45;8.47;;;3.47;;
19525;SDS011;9907;42.676;26.348;2023-04-15T05:03:11;5.87;;;3.77;;
19525;SDS011;9907;42.676;26.348;2023-04-15T05:05:36;6.70;;;3.87;;
19525;SDS011;9907;42.676;26.348;2023-04-15T05:08:03;5.47;;;3.73;;
19525;SDS011;9907;42.676;26.348;2023-04-15T05:10:29;5.40;;;3.37;;
19525;SDS011;9907;42.676;26.348;2023-04-15T05:12:55;5.53;;;3.10;;
19525;SDS011;9907;42.676;26.348;2023-04-15T05:15:21;4.53;;;3.13;;
19525;SDS011;9907;42.676;26.348;2023-04-15T05:17:46;3.57;;;3.27;;
19525;SDS011;9907;42.676;26.348;2023-04-15T05:20:11;5.13;;;2.93;;
19525;SDS011;9907;42.676;26.348;2023-04-15T05:22:37;6.87;;;3.23;;
19525;SDS011;9907;42.676;26.348;2023-04-15T05:25:03;7.23;;;3.07;;
19525;SDS011;9907;42.676;26.348;2023-04-15T05:27:29;6.77;;;3.83;;
19525;SDS011;9907;42.676;26.348;2023-04-15T05:29:54;5.27;;;3.20;;
19525;SDS011;9907;42.676;26.348;2023-04-15T05:32:20;4.83;;;3.70;;
19525;SDS011;9907;42.676;26.348;2023-04-15T05:34:46;5.50;;;3.27;;
19525;SDS011;9907;42.676;26.348;2023-04-15T05:37:11;5.30;;;3.30;;
19525;SDS011;9907;42.676;26.348;2023-04-15T05:39:37;6.00;;;3.47;;
19525;SDS011;9907;42.676;26.348;2023-04-15T05:42:02;3.87;;;2.73;;
19525;SDS011;9907;42.676;26.348;2023-04-15T05:44:29;4.97;;;2.60;;
19525;SDS011;9907;42.676;26.348;2023-04-15T05:46:55;3.90;;;2.80;;
19525;SDS011;9907;42.676;26.348;2023-04-15T05:49:21;4.27;;;2.97;;
19525;SDS011;9907;42.676;26.348;2023-04-15T05:51:46;4.37;;;2.90;;
19525;SDS011;9907;42.676;26.348;2023-04-15T05:54:12;5.43;;;3.03;;
19525;SDS011;9907;42.676;26.348;2023-04-15T05:56:37;4.37;;;2.90;;
19525;SDS011;9907;42.676;26.348;2023-04-15T05:59:03;6.07;;;3.33;;
19525;SDS011;9907;42.676;26.348;2023-04-15T06:01:28;6.03;;;2.70;;
19525;SDS011;9907;42.676;26.348;2023-04-15T06:03:54;4.53;;;3.00;;
19525;SDS011;9907;42.676;26.348;2023-04-15T06:06:20;4.40;;;3.13;;
19525;SDS011;9907;42.676;26.348;2023-04-15T06:08:45;4.03;;;2.80;;
19525;SDS011;9907;42.676;26.348;2023-04-15T06:11:11;4.77;;;2.87;;
19525;SDS011;9907;42.676;26.348;2023-04-15T06:13:36;6.50;;;3.37;;
19525;SDS011;9907;42.676;26.348;2023-04-15T06:16:02;5.40;;;3.47;;
19525;SDS011;9907;42.676;26.348;2023-04-15T06:18:28;4.83;;;3.03;;
19525;SDS011;9907;42.676;26.348;2023-04-15T06:20:53;4.60;;;3.47;;
19525;SDS011;9907;42.676;26.348;2023-04-15T06:23:19;4.00;;;3.00;;
19525;SDS011;9907;42.676;26.348;2023-04-15T06:25:45;3.53;;;2.87;;
19525;SDS011;9907;42.676;26.348;2023-04-15T06:28:10;6.87;;;3.10;;
19525;SDS011;9907;42.676;26.348;2023-04-15T06:30:36;3.60;;;2.73;;
19525;SDS011;9907;42.676;26.348;2023-04-15T06:33:02;5.77;;;3.10;;
19525;SDS011;9907;42.676;26.348;2023-04-15T06:35:29;6.60;;;3.50;;
19525;SDS011;9907;42.676;26.348;2023-04-15T06:37:55;5.27;;;3.57;;
19525;SDS011;9907;42.676;26.348;2023-04-15T06:40:20;6.63;;;4.67;;
19525;SDS011;9907;42.676;26.348;2023-04-15T06:42:46;5.70;;;3.80;;
19525;SDS011;9907;42.676;26.348;2023-04-15T06:45:11;6.17;;;4.00;;
19525;SDS011;9907;42.676;26.348;2023-04-15T06:47:37;6.40;;;3.27;;
19525;SDS011;9907;42.676;26.348;2023-04-15T06:50:02;4.70;;;2.83;;
19525;SDS011;9907;42.676;26.348;2023-04-15T06:52:28;4.63;;;2.63;;
19525;SDS011;9907;42.676;26.348;2023-04-15T06:54:53;6.60;;;2.70;;
19525;SDS011;9907;42.676;26.348;2023-04-15T06:57:19;6.60;;;2.40;;
19525;SDS011;9907;42.676;26.348;2023-04-15T06:59:44;2.70;;;1.90;;
19525;SDS011;9907;42.676;26.348;2023-04-15T07:02:11;4.33;;;2.37;;
19525;SDS011;9907;42.676;26.348;2023-04-15T07:04:38;3.80;;;2.53;;
19525;SDS011;9907;42.676;26.348;2023-04-15T07:07:04;4.77;;;2.80;;
19525;SDS011;9907;42.676;26.348;2023-04-15T07:09:30;4.50;;;2.47;;
19525;SDS011;9907;42.676;26.348;2023-04-15T07:11:56;5.17;;;2.90;;
19525;SDS011;9907;42.676;26.348;2023-04-15T07:14:21;5.97;;;3.23;;
19525;SDS011;9907;42.676;26.348;2023-04-15T07:16:47;5.03;;;3.17;;
19525;SDS011;9907;42.676;26.348;2023-04-15T07:19:12;3.20;;;2.23;;
19525;SDS011;9907;42.676;26.348;2023-04-15T07:21:38;5.07;;;2.63;;
19525;SDS011;9907;42.676;26.348;2023-04-15T07:24:03;7.47;;;2.70;;
19525;SDS011;9907;42.676;26.348;2023-04-15T07:26:29;4.63;;;3.00;;
19525;SDS011;9907;42.676;26.348;2023-04-15T07:28:55;7.27;;;3.13;;
19525;SDS011;9907;42.676;26.348;2023-04-15T07:31:20;3.97;;;2.70;;
19525;SDS011;9907;42.676;26.348;2023-04-15T07:33:46;5.33;;;3.73;;
19525;SDS011;9907;42.676;26.348;2023-04-15T07:36:11;5.47;;;3.20;;
19525;SDS011;9907;42.676;26.348;2023-04-15T07:38:37;6.80;;;3.40;;
19525;SDS011;9907;42.676;26.348;2023-04-15T07:41:03;4.10;;;2.90;;
19525;SDS011;9907;42.676;26.348;2023-04-15T07:43:29;5.90;;;3.33;;
19525;SDS011;9907;42.676;26.348;2023-04-15T07:45:54;5.10;;;3.30;;
19525;SDS011;9907;42.676;26.348;2023-04-15T07:48:20;3.37;;;2.63;;
19525;SDS011;9907;42.676;26.348;2023-04-15T07:50:45;2.80;;;2.50;;
19525;SDS011;9907;42.676;26.348;2023-04-15T07:53:11;5.30;;;3.20;;
19525;SDS011;9907;42.676;26.348;2023-04-15T07:55:36;5.70;;;4.77;;
19525;SDS011;9907;42.676;26.348;2023-04-15T07:58:02;5.57;;;4.00;;
19525;SDS011;9907;42.676;26.348;2023-04-15T08:00:27;7.70;;;5.20;;
19525;SDS011;9907;42.676;26.348;2023-04-15T08:02:53;6.40;;;5.00;;
19525;SDS011;9907;42.676;26.348;2023-04-15T08:05:21;7.50;;;6.53;;
19525;SDS011;9907;42.676;26.348;2023-04-15T08:07:46;9.70;;;7.00;;
19525;SDS011;9907;42.676;26.348;2023-04-15T08:10:13;9.77;;;6.80;;
19525;SDS011;9907;42.676;26.348;2023-04-15T08:12:38;10.33;;;6.80;;
19525;SDS011;9907;42.676;26.348;2023-04-15T08:15:04;9.00;;;7.20;;
19525;SDS011;9907;42.676;26.348;2023-04-15T08:17:30;11.63;;;8.40;;
19525;SDS011;9907;42.676;26.348;2023-04-15T08:19:56;10.23;;;8.30;;
19525;SDS011;9907;42.676;26.348;2023-04-15T08:22:21;10.60;;;7.10;;
19525;SDS011;9907;42.676;26.348;2023-04-15T08:24:47;12.67;;;8.60;;
19525;SDS011;9907;42.676;26.348;2023-04-15T08:27:13;12.80;;;7.90;;
19525;SDS011;9907;42.676;26.348;2023-04-15T08:29:38;9.70;;;6.23;;
19525;SDS011;9907;42.676;26.348;2023-04-15T08:32:04;7.80;;;6.10;;
19525;SDS011;9907;42.676;26.348;2023-04-15T08:34:30;8.70;;;6.00;;
19525;SDS011;9907;42.676;26.348;2023-04-15T08:36:56;6.97;;;6.17;;
19525;SDS011;9907;42.676;26.348;2023-04-15T08:39:21;7.27;;;5.63;;
19525;SDS011;9907;42.676;26.348;2023-04-15T08:44:19;4.33;;;3.13;;
19525;SDS011;9907;42.676;26.348;2023-04-15T08:46:47;4.13;;;3.77;;
19525;SDS011;9907;42.676;26.348;2023-04-15T08:49:13;6.03;;;4.70;;
19525;SDS011;9907;42.676;26.348;2023-04-15T08:51:42;6.53;;;5.83;;
19525;SDS011;9907;42.676;26.348;2023-04-15T08:54:08;8.53;;;7.63;;
19525;SDS011;9907;42.676;26.348;2023-04-15T08:56:34;9.47;;;8.67;;
19525;SDS011;9907;42.676;26.348;2023-04-15T08:59:01;6.83;;;6.00;;
19525;SDS011;9907;42.676;26.348;2023-04-15T09:01:26;6.40;;;5.70;;
19525;SDS011;9907;42.676;26.348;2023-04-15T09:03:52;7.33;;;5.87;;
19525;SDS011;9907;42.676;26.348;2023-04-15T09:06:19;6.27;;;5.67;;
19525;SDS011;9907;42.676;26.348;2023-04-15T09:08:45;6.83;;;5.90;;
19525;SDS011;9907;42.676;26.348;2023-04-15T09:11:11;6.93;;;6.27;;
19525;SDS011;9907;42.676;26.348;2023-04-15T09:13:37;8.47;;;7.63;;
19525;SDS011;9907;42.676;26.348;2023-04-15T09:16:06;9.23;;;6.90;;
19525;SDS011;9907;42.676;26.348;2023-04-15T09:18:32;9.37;;;6.77;;
19525;SDS011;9907;42.676;26.348;2023-04-15T09:21:12;8.20;;;6.43;;
19525;SDS011;9907;42.676;26.348;2023-04-15T09:23:40;7.57;;;6.87;;
19525;SDS011;9907;42.676;26.348;2023-04-15T09:26:18;8.60;;;6.50;;
19525;SDS011;9907;42.676;26.348;2023-04-15T09:28:44;8.60;;;6.67;;
19525;SDS011;9907;42.676;26.348;2023-04-15T09:31:09;8.07;;;6.20;;
19525;SDS011;9907;42.676;26.348;2023-04-15T09:33:35;6.93;;;5.77;;
19525;SDS011;9907;42.676;26.348;2023-04-15T09:36:17;6.53;;;5.70;;
19525;SDS011;9907;42.676;26.348;2023-04-15T09:38:53;6.33;;;5.73;;
19525;SDS011;9907;42.676;26.348;2023-04-15T09:41:20;6.77;;;6.07;;
19525;SDS011;9907;42.676;26.348;2023-04-15T09:43:46;7.17;;;6.43;;
19525;SDS011;9907;42.676;26.348;2023-04-15T09:46:11;7.83;;;6.80;;
19525;SDS011;9907;42.676;26.348;2023-04-15T09:48:37;8.60;;;7.70;;
19525;SDS011;9907;42.676;26.348;2023-04-15T09:51:02;7.47;;;6.17;;
19525;SDS011;9907;42.676;26.348;2023-04-15T09:53:28;6.87;;;5.73;;
19525;SDS011;9907;42.676;26.348;2023-04-15T09:55:54;5.90;;;5.30;;
19525;SDS011;9907;42.676;26.348;2023-04-15T09:58:22;7.37;;;5.80;;
19525;SDS011;9907;42.676;26.348;2023-04-15T10:00:51;6.17;;;5.60;;
19525;SDS011;9907;42.676;26.348;2023-04-15T10:03:21;6.10;;;4.60;;
19525;SDS011;9907;42.676;26.348;2023-04-15T10:05:49;5.30;;;4.77;;
19525;SDS011;9907;42.676;26.348;2023-04-15T10:08:19;5.93;;;5.20;;
19525;SDS011;9907;42.676;26.348;2023-04-15T10:10:46;5.47;;;4.90;;
19525;SDS011;9907;42.676;26.348;2023-04-15T10:13:13;6.50;;;5.20;;
19525;SDS011;9907;42.676;26.348;2023-04-15T10:15:43;6.57;;;5.30;;
19525;SDS011;9907;42.676;26.348;2023-04-15T10:18:14;6.33;;;5.73;;
19525;SDS011;9907;42.676;26.348;2023-04-15T10:20:41;5.00;;;4.50;;
19525;SDS011;9907;42.676;26.348;2023-04-15T10:23:08;6.13;;;5.47;;
19525;SDS011;9907;42.676;26.348;2023-04-15T10:25:35;5.57;;;5.07;;
19525;SDS011;9907;42.676;26.348;2023-04-15T10:28:01;7.53;;;5.57;;
19525;SDS011;9907;42.676;26.348;2023-04-15T10:30:27;6.70;;;5.80;;
19525;SDS011;9907;42.676;26.348;2023-04-15T10:32:53;8.13;;;7.23;;
19525;SDS011;9907;42.676;26.348;2023-04-15T10:35:20;7.20;;;6.50;;
19525;SDS011;9907;42.676;26.348;2023-04-15T10:37:47;8.63;;;6.90;;
19525;SDS011;9907;42.676;26.348;2023-04-15T10:40:28;7.63;;;5.70;;
19525;SDS011;9907;42.676;26.348;2023-04-15T10:42:59;10.80;;;6.40;;
19525;SDS011;9907;42.676;26.348;2023-04-15T10:45:35;10.43;;;5.93;;
19525;SDS011;9907;42.676;26.348;2023-04-15T10:48:02;5.40;;;4.07;;
19525;SDS011;9907;42.676;26.348;2023-04-15T10:50:31;5.97;;;4.13;;
19525;SDS011;9907;42.676;26.348;2023-04-15T10:52:57;5.43;;;3.90;;
19525;SDS011;9907;42.676;26.348;2023-04-15T10:55:24;5.67;;;3.90;;
19525;SDS011;9907;42.676;26.348;2023-04-15T10:57:57;4.60;;;4.20;;
19525;SDS011;9907;42.676;26.348;2023-04-15T11:00:25;3.73;;;3.33;;
19525;SDS011;9907;42.676;26.348;2023-04-15T11:02:54;3.93;;;3.23;;
19525;SDS011;9907;42.676;26.348;2023-04-15T11:08:06;3.73;;;3.40;;
19525;SDS011;9907;42.676;26.348;2023-04-15T11:15:47;3.53;;;3.13;;
19525;SDS011;9907;42.676;26.348;2023-04-15T11:18:26;4.80;;;2.90;;
19525;SDS011;9907;42.676;26.348;2023-04-15T11:20:55;4.80;;;3.23;;
19525;SDS011;9907;42.676;26.348;2023-04-15T11:23:41;3.47;;;2.57;;
19525;SDS011;9907;42.676;26.348;2023-04-15T11:26:10;3.03;;;2.77;;
19525;SDS011;9907;42.676;26.348;2023-04-15T11:28:37;4.67;;;3.20;;
19525;SDS011;9907;42.676;26.348;2023-04-15T11:31:18;6.63;;;2.80;;
19525;SDS011;9907;42.676;26.348;2023-04-15T11:34:05;4.90;;;3.27;;
19525;SDS011;9907;42.676;26.348;2023-04-15T11:36:29;5.47;;;3.63;;
19525;SDS011;9907;42.676;26.348;2023-04-15T11:38:56;6.63;;;4.17;;
19525;SDS011;9907;42.676;26.348;2023-04-15T11:41:23;6.50;;;5.00;;
19525;SDS011;9907;42.676;26.348;2023-04-15T11:43:49;4.50;;;3.40;;
19525;SDS011;9907;42.676;26.348;2023-04-15T11:46:15;2.33;;;2.10;;
19525;SDS011;9907;42.676;26.348;2023-04-15T11:48:41;3.93;;;2.83;;
19525;SDS011;9907;42.676;26.348;2023-04-15T11:51:10;3.83;;;2.20;;
19525;SDS011;9907;42.676;26.348;2023-04-15T11:56:21;4.30;;;2.40;;
19525;SDS011;9907;42.676;26.348;2023-04-15T11:58:56;4.53;;;2.30;;
19525;SDS011;9907;42.676;26.348;2023-04-15T12:01:29;2.43;;;2.17;;
19525;SDS011;9907;42.676;26.348;2023-04-15T12:03:56;2.93;;;2.20;;
19525;SDS011;9907;42.676;26.348;2023-04-15T12:06:23;2.90;;;1.97;;
19525;SDS011;9907;42.676;26.348;2023-04-15T12:09:08;3.13;;;2.27;;
19525;SDS011;9907;42.676;26.348;2023-04-15T12:14:10;3.37;;;2.10;;
19525;SDS011;9907;42.676;26.348;2023-04-15T12:16:44;4.87;;;2.93;;
19525;SDS011;9907;42.676;26.348;2023-04-15T12:19:13;3.73;;;2.27;;
19525;SDS011;9907;42.676;26.348;2023-04-15T12:21:42;3.50;;;2.50;;
19525;SDS011;9907;42.676;26.348;2023-04-15T12:24:09;2.53;;;2.00;;
19525;SDS011;9907;42.676;26.348;2023-04-15T12:26:37;4.23;;;2.47;;
19525;SDS011;9907;42.676;26.348;2023-04-15T12:29:13;3.70;;;2.10;;
19525;SDS011;9907;42.676;26.348;2023-04-15T12:34:35;2.90;;;1.60;;
19525;SDS011;9907;42.676;26.348;2023-04-15T12:37:06;3.63;;;2.10;;
19525;SDS011;9907;42.676;26.348;2023-04-15T12:39:36;5.93;;;1.90;;
19525;SDS011;9907;42.676;26.348;2023-04-15T12:42:06;3.37;;;1.97;;
19525;SDS011;9907;42.676;26.348;2023-04-15T12:44:34;3.13;;;1.80;;
19525;SDS011;9907;42.676;26.348;2023-04-15T12:47:01;3.17;;;1.90;;
19525;SDS011;9907;42.676;26.348;2023-04-15T12:49:27;4.63;;;2.13;;
19525;SDS011;9907;42.676;26.348;2023-04-15T12:51:53;4.17;;;1.97;;
19525;SDS011;9907;42.676;26.348;2023-04-15T12:54:21;2.70;;;2.10;;
19525;SDS011;9907;42.676;26.348;2023-04-15T12:56:47;3.10;;;2.00;;
19525;SDS011;9907;42.676;26.348;2023-04-15T12:59:14;2.17;;;1.90;;
19525;SDS011;9907;42.676;26.348;2023-04-15T13:01:40;2.80;;;1.67;;
19525;SDS011;9907;42.676;26.348;2023-04-15T13:04:06;2.13;;;1.67;;
19525;SDS011;9907;42.676;26.348;2023-04-15T13:06:32;2.13;;;1.93;;
19525;SDS011;9907;42.676;26.348;2023-04-15T13:09:01;3.53;;;2.10;;
19525;SDS011;9907;42.676;26.348;2023-04-15T13:11:27;5.83;;;2.40;;
19525;SDS011;9907;42.676;26.348;2023-04-15T13:13:55;3.43;;;2.30;;
19525;SDS011;9907;42.676;26.348;2023-04-15T13:16:22;3.53;;;2.33;;
19525;SDS011;9907;42.676;26.348;2023-04-15T13:18:48;4.23;;;2.43;;
19525;SDS011;9907;42.676;26.348;2023-04-15T13:21:14;2.53;;;1.70;;
19525;SDS011;9907;42.676;26.348;2023-04-15T13:23:42;3.77;;;2.00;;
19525;SDS011;9907;42.676;26.348;2023-04-15T13:26:07;4.03;;;3.17;;
19525;SDS011;9907;42.676;26.348;2023-04-15T13:28:33;6.60;;;4.50;;
19525;SDS011;9907;42.676;26.348;2023-04-15T13:30:58;5.27;;;3.40;;
19525;SDS011;9907;42.676;26.348;2023-04-15T13:33:24;2.60;;;2.10;;
19525;SDS011;9907;42.676;26.348;2023-04-15T13:35:50;3.27;;;2.00;;
19525;SDS011;9907;42.676;26.348;2023-04-15T13:38:16;2.47;;;1.90;;
19525;SDS011;9907;42.676;26.348;2023-04-15T13:40:41;4.20;;;2.33;;
19525;SDS011;9907;42.676;26.348;2023-04-15T13:43:07;2.10;;;1.70;;
19525;SDS011;9907;42.676;26.348;2023-04-15T13:45:33;2.67;;;2.43;;
19525;SDS011;9907;42.676;26.348;2023-04-15T13:47:58;4.60;;;2.47;;
19525;SDS011;9907;42.676;26.348;2023-04-15T13:50:24;4.20;;;2.27;;
19525;SDS011;9907;42.676;26.348;2023-04-15T13:52:49;4.27;;;2.10;;
19525;SDS011;9907;42.676;26.348;2023-04-15T13:55:15;5.83;;;3.60;;
19525;SDS011;9907;42.676;26.348;2023-04-15T13:57:40;4.50;;;2.00;;
19525;SDS011;9907;42.676;26.348;2023-04-15T14:00:06;2.47;;;1.50;;
19525;SDS011;9907;42.676;26.348;2023-04-15T14:02:32;5.50;;;2.87;;
19525;SDS011;9907;42.676;26.348;2023-04-15T14:04:58;5.47;;;3.83;;
19525;SDS011;9907;42.676;26.348;2023-04-15T14:07:23;2.90;;;2.10;;
19525;SDS011;9907;42.676;26.348;2023-04-15T14:09:49;5.30;;;3.20;;
19525;SDS011;9907;42.676;26.348;2023-04-15T14:12:14;3.73;;;2.60;;
19525;SDS011;9907;42.676;26.348;2023-04-15T14:14:40;2.73;;;2.13;;
19525;SDS011;9907;42.676;26.348;2023-04-15T14:17:06;2.70;;;2.30;;
19525;SDS011;9907;42.676;26.348;2023-04-15T14:19:32;2.67;;;1.77;;
19525;SDS011;9907;42.676;26.348;2023-04-15T14:21:59;2.73;;;1.90;;
19525;SDS011;9907;42.676;26.348;2023-04-15T14:24:24;1.93;;;1.33;;
19525;SDS011;9907;42.676;26.348;2023-04-15T14:26:50;2.60;;;1.30;;
19525;SDS011;9907;42.676;26.348;2023-04-15T14:29:16;1.97;;;1.43;;
19525;SDS011;9907;42.676;26.348;2023-04-15T14:31:42;3.03;;;1.60;;
19525;SDS011;9907;42.676;26.348;2023-04-15T14:34:09;3.80;;;1.80;;
19525;SDS011;9907;42.676;26.348;2023-04-15T14:36:35;3.70;;;1.73;;
19525;SDS011;9907;42.676;26.348;2023-04-15T14:39:00;2.67;;;1.50;;
19525;SDS011;9907;42.676;26.348;2023-04-15T14:41:27;3.17;;;1.67;;
19525;SDS011;9907;42.676;26.348;2023-04-15T14:43:53;3.70;;;1.70;;
19525;SDS011;9907;42.676;26.348;2023-04-15T14:46:18;4.20;;;1.80;;
19525;SDS011;9907;42.676;26.348;2023-04-15T14:48:44;3.87;;;1.80;;
19525;SDS011;9907;42.676;26.348;2023-04-15T14:51:09;4.17;;;1.77;;
19525;SDS011;9907;42.676;26.348;2023-04-15T14:53:35;3.00;;;1.93;;
19525;SDS011;9907;42.676;26.348;2023-04-15T14:56:00;3.50;;;1.60;;
19525;SDS011;9907;42.676;26.348;2023-04-15T14:58:26;2.83;;;1.60;;
19525;SDS011;9907;42.676;26.348;2023-04-15T15:00:51;2.77;;;1.67;;
19525;SDS011;9907;42.676;26.348;2023-04-15T15:03:17;3.10;;;1.80;;